sensor_id;sensor_type;location;lat;lon;timestamp;pressure;altitude;pressure_sealevel;temperature;humidity
28606;BME280;46498;49.968;7.754;2023-06-10T00:00:43;-18917.00;;;20.07;50.65
28606;BME280;46498;49.968;7.754;2023-06-10T00:05:45;-18916.00;;;20.04;51.24
28606;BME280;46498;49.968;7.754;2023-06-10T00:10:46;-18916.00;;;20.03;51.47
28606;BME280;46498;49.968;7.754;2023-06-10T00:15:47;-18913.00;;;19.95;51.96
28606;BME280;46498;49.968;7.754;2023-06-10T00:20:48;-18908.00;;;19.80;52.72
28606;BME280;46498;49.968;7.754;2023-06-10T00:25:53;-18911.00;;;19.89;52.52
28606;BME280;46498;49.968;7.754;2023-06-10T00:30:54;-18910.00;;;19.84;52.78
28606;BME280;46498;49.968;7.754;2023-06-10T00:35:55;-18911.00;;;19.88;52.77
28606;BME280;46498;49.968;7.754;2023-06-10T00:40:56;-18907.00;;;19.76;53.23
28606;BME280;46498;49.968;7.754;2023-06-10T00:45:59;-18903.00;;;19.64;53.83
28606;BME280;46498;49.968;7.754;2023-06-10T00:51:00;-18904.00;;;19.67;53.74
28606;BME280;46498;49.968;7.754;2023-06-10T00:56:01;-18902.00;;;19.61;53.94
28606;BME280;46498;49.968;7.754;2023-06-10T01:01:03;-18902.00;;;19.61;54.20
28606;BME280;46498;49.968;7.754;2023-06-10T01:13:00;-18900.00;;;19.53;54.29
28606;BME280;46498;49.968;7.754;2023-06-10T01:18:06;-18893.00;;;19.34;55.71
28606;BME280;46498;49.968;7.754;2023-06-10T01:23:10;-18894.00;;;19.36;55.58
28606;BME280;46498;49.968;7.754;2023-06-10T01:28:40;-18892.00;;;19.31;55.94
28606;BME280;46498;49.968;7.754;2023-06-10T01:33:47;-18892.00;;;19.29;56.04
28606;BME280;46498;49.968;7.754;2023-06-10T01:38:50;-18891.00;;;19.27;55.99
28606;BME280;46498;49.968;7.754;2023-06-10T01:43:54;-18882.00;;;18.98;57.71
28606;BME280;46498;49.968;7.754;2023-06-10T01:48:55;-18879.00;;;18.88;58.28
28606;BME280;46498;49.968;7.754;2023-06-10T01:53:56;-18875.00;;;18.74;59.01
28606;BME280;46498;49.968;7.754;2023-06-10T01:58:57;-18874.00;;;18.74;59.35
28606;BME280;46498;49.968;7.754;2023-06-10T02:03:59;-18871.00;;;18.65;58.93
28606;BME280;46498;49.968;7.754;2023-06-10T02:09:01;-18876.00;;;18.79;57.69
28606;BME280;46498;49.968;7.754;2023-06-10T02:14:03;-18865.00;;;18.45;59.82
28606;BME280;46498;49.968;7.754;2023-06-10T02:19:04;-18860.00;;;18.27;59.76
28606;BME280;46498;49.968;7.754;2023-06-10T02:24:07;-18862.00;;;18.34;59.31
28606;BME280;46498;49.968;7.754;2023-06-10T02:29:09;-18857.00;;;18.18;60.00
28606;BME280;46498;49.968;7.754;2023-06-10T02:34:10;-18857.00;;;18.18;59.68
28606;BME280;46498;49.968;7.754;2023-06-10T02:39:11;-18854.00;;;18.09;60.32
28606;BME280;46498;49.968;7.754;2023-06-10T02:44:13;-18851.00;;;18.00;60.43
28606;BME280;46498;49.968;7.754;2023-06-10T02:49:14;-18851.00;;;18.01;59.22
28606;BME280;46498;49.968;7.754;2023-06-10T02:54:16;-18850.00;;;17.96;58.82
28606;BME280;46498;49.968;7.754;2023-06-10T02:59:18;-18847.00;;;17.86;60.14
28606;BME280;46498;49.968;7.754;2023-06-10T03:04:19;-18843.00;;;17.76;60.57
28606;BME280;46498;49.968;7.754;2023-06-10T03:09:28;-18843.00;;;17.75;60.29
28606;BME280;46498;49.968;7.754;2023-06-10T03:14:30;-18839.00;;;17.62;61.03
28606;BME280;46498;49.968;7.754;2023-06-10T03:19:31;-18835.00;;;17.49;61.33
28606;BME280;46498;49.968;7.754;2023-06-10T03:24:34;-18831.00;;;17.38;61.64
28606;BME280;46498;49.968;7.754;2023-06-10T03:29:37;-18833.00;;;17.42;61.31
28606;BME280;46498;49.968;7.754;2023-06-10T03:34:40;-18827.00;;;17.25;63.71
28606;BME280;46498;49.968;7.754;2023-06-10T03:39:41;-18827.00;;;17.24;63.54
28606;BME280;46498;49.968;7.754;2023-06-10T03:44:43;-18827.00;;;17.23;63.03
28606;BME280;46498;49.968;7.754;2023-06-10T03:49:44;-18826.00;;;17.22;64.18
28606;BME280;46498;49.968;7.754;2023-06-10T03:54:45;-18825.00;;;17.19;64.95
28606;BME280;46498;49.968;7.754;2023-06-10T03:59:46;-18821.00;;;17.05;66.27
28606;BME280;46498;49.968;7.754;2023-06-10T04:04:48;-18823.00;;;17.11;64.69
28606;BME280;46498;49.968;7.754;2023-06-10T04:09:49;-18826.00;;;17.21;63.00
28606;BME280;46498;49.968;7.754;2023-06-10T04:14:51;-18834.00;;;17.46;59.38
28606;BME280;46498;49.968;7.754;2023-06-10T04:19:53;-18840.00;;;17.64;58.94
28606;BME280;46498;49.968;7.754;2023-06-10T04:24:56;-18850.00;;;17.98;58.50
28606;BME280;46498;49.968;7.754;2023-06-10T04:29:57;-18861.00;;;18.31;55.00
28606;BME280;46498;49.968;7.754;2023-06-10T04:34:59;-18868.00;;;18.55;55.14
28606;BME280;46498;49.968;7.754;2023-06-10T04:40:01;-18879.00;;;18.88;52.12
28606;BME280;46498;49.968;7.754;2023-06-10T04:45:03;-18881.00;;;18.96;53.79
28606;BME280;46498;49.968;7.754;2023-06-10T04:50:05;-18878.00;;;18.85;54.60
28606;BME280;46498;49.968;7.754;2023-06-10T04:55:07;-18879.00;;;18.89;55.80
28606;BME280;46498;49.968;7.754;2023-06-10T05:00:10;-18883.00;;;19.00;55.36
28606;BME280;46498;49.968;7.754;2023-06-10T05:05:11;-18884.00;;;19.03;55.96
28606;BME280;46498;49.968;7.754;2023-06-10T05:10:12;-18887.00;;;19.13;55.85
28606;BME280;46498;49.968;7.754;2023-06-10T05:15:13;-18892.00;;;19.29;58.87
28606;BME280;46498;49.968;7.754;2023-06-10T05:20:14;-18901.00;;;19.56;52.90
28606;BME280;46498;49.968;7.754;2023-06-10T05:25:15;-18907.00;;;19.75;52.24
28606;BME280;46498;49.968;7.754;2023-06-10T05:30:17;-18903.00;;;19.63;57.55
28606;BME280;46498;49.968;7.754;2023-06-10T05:35:19;-18913.00;;;19.96;61.49
28606;BME280;46498;49.968;7.754;2023-06-10T05:40:20;-18919.00;;;20.14;54.99
28606;BME280;46498;49.968;7.754;2023-06-10T05:45:21;-18923.00;;;20.26;57.41
28606;BME280;46498;49.968;7.754;2023-06-10T05:50:21;-18918.00;;;20.10;58.06
28606;BME280;46498;49.968;7.754;2023-06-10T05:55:22;-18923.00;;;20.27;56.93
28606;BME280;46498;49.968;7.754;2023-06-10T06:00:23;-18938.00;;;20.73;53.48
28606;BME280;46498;49.968;7.754;2023-06-10T06:05:25;-18955.00;;;21.28;50.10
28606;BME280;46498;49.968;7.754;2023-06-10T06:10:26;-18962.00;;;21.49;52.22
28606;BME280;46498;49.968;7.754;2023-06-10T06:15:27;-18971.00;;;21.77;51.11
28606;BME280;46498;49.968;7.754;2023-06-10T06:20:28;-18979.00;;;22.02;50.40
28606;BME280;46498;49.968;7.754;2023-06-10T06:25:29;-18982.00;;;22.13;46.89
28606;BME280;46498;49.968;7.754;2023-06-10T06:30:30;-18985.00;;;22.21;45.54
28606;BME280;46498;49.968;7.754;2023-06-10T06:35:32;-18978.00;;;21.99;45.93
28606;BME280;46498;49.968;7.754;2023-06-10T06:40:34;-18979.00;;;22.02;45.23
28606;BME280;46498;49.968;7.754;2023-06-10T06:45:35;-18995.00;;;22.54;44.31
28606;BME280;46498;49.968;7.754;2023-06-10T06:50:36;-18987.00;;;22.29;44.69
28606;BME280;46498;49.968;7.754;2023-06-10T06:55:37;-18969.00;;;21.73;46.12
28606;BME280;46498;49.968;7.754;2023-06-10T07:00:38;-18976.00;;;21.93;46.48
28606;BME280;46498;49.968;7.754;2023-06-10T07:05:39;-18970.00;;;21.76;46.22
28606;BME280;46498;49.968;7.754;2023-06-10T07:10:40;-18973.00;;;21.84;46.61
28606;BME280;46498;49.968;7.754;2023-06-10T07:15:41;-18979.00;;;22.04;46.73
28606;BME280;46498;49.968;7.754;2023-06-10T07:20:42;-18985.00;;;22.22;46.73
28606;BME280;46498;49.968;7.754;2023-06-10T07:25:43;-18996.00;;;22.56;45.50
28606;BME280;46498;49.968;7.754;2023-06-10T07:30:44;-18983.00;;;22.15;46.46
28606;BME280;46498;49.968;7.754;2023-06-10T07:35:45;-19002.00;;;22.76;45.78
28606;BME280;46498;49.968;7.754;2023-06-10T07:40:46;-19012.00;;;23.06;45.74
28606;BME280;46498;49.968;7.754;2023-06-10T07:45:47;-19010.00;;;23.01;45.05
28606;BME280;46498;49.968;7.754;2023-06-10T07:50:48;-19017.00;;;23.22;44.92
28606;BME280;46498;49.968;7.754;2023-06-10T07:55:49;-19003.00;;;22.79;44.75
28606;BME280;46498;49.968;7.754;2023-06-10T08:00:50;-19022.00;;;23.40;44.04
28606;BME280;46498;49.968;7.754;2023-06-10T08:05:51;-19036.00;;;23.83;43.73
28606;BME280;46498;49.968;7.754;2023-06-10T08:10:52;-19037.00;;;23.85;43.33
28606;BME280;46498;49.968;7.754;2023-06-10T08:15:53;-19050.00;;;24.27;43.81
28606;BME280;46498;49.968;7.754;2023-06-10T08:20:55;-19046.00;;;24.14;42.86
28606;BME280;46498;49.968;7.754;2023-06-10T08:25:56;-19042.00;;;24.03;41.98
28606;BME280;46498;49.968;7.754;2023-06-10T08:30:58;-19049.00;;;24.23;42.28
28606;BME280;46498;49.968;7.754;2023-06-10T08:35:59;-19036.00;;;23.83;41.70
28606;BME280;46498;49.968;7.754;2023-06-10T08:41:00;-19051.00;;;24.29;39.25
28606;BME280;46498;49.968;7.754;2023-06-10T08:46:02;-19055.00;;;24.43;39.34
28606;BME280;46498;49.968;7.754;2023-06-10T08:51:04;-19060.00;;;24.59;40.01
28606;BME280;46498;49.968;7.754;2023-06-10T08:56:06;-19069.00;;;24.87;39.31
28606;BME280;46498;49.968;7.754;2023-06-10T09:01:08;-19056.00;;;24.45;40.52
28606;BME280;46498;49.968;7.754;2023-06-10T09:06:09;-19066.00;;;24.76;39.80
28606;BME280;46498;49.968;7.754;2023-06-10T09:11:10;-19076.00;;;25.08;40.02
28606;BME280;46498;49.968;7.754;2023-06-10T09:16:12;-19069.00;;;24.87;39.96
28606;BME280;46498;49.968;7.754;2023-06-10T09:21:13;-19055.00;;;24.44;39.26
28606;BME280;46498;49.968;7.754;2023-06-10T09:26:14;-19056.00;;;24.46;39.60
28606;BME280;46498;49.968;7.754;2023-06-10T09:31:16;-19058.00;;;24.53;39.89
28606;BME280;46498;49.968;7.754;2023-06-10T09:36:22;-19065.00;;;24.73;40.17
28606;BME280;46498;49.968;7.754;2023-06-10T09:41:35;-19067.00;;;24.80;38.40
28606;BME280;46498;49.968;7.754;2023-06-10T09:46:36;-19075.00;;;25.06;38.31
28606;BME280;46498;49.968;7.754;2023-06-10T09:51:37;-19066.00;;;24.78;38.15
28606;BME280;46498;49.968;7.754;2023-06-10T09:56:38;-19087.00;;;25.44;38.03
28606;BME280;46498;49.968;7.754;2023-06-10T10:01:43;-19085.00;;;25.38;37.04
28606;BME280;46498;49.968;7.754;2023-06-10T10:06:44;-19083.00;;;25.31;36.64
28606;BME280;46498;49.968;7.754;2023-06-10T10:11:45;-19089.00;;;25.49;36.38
28606;BME280;46498;49.968;7.754;2023-06-10T10:16:49;-19077.00;;;25.13;36.15
28606;BME280;46498;49.968;7.754;2023-06-10T10:21:53;-19089.00;;;25.50;36.14
28606;BME280;46498;49.968;7.754;2023-06-10T10:26:58;-19115.00;;;26.32;34.78
28606;BME280;46498;49.968;7.754;2023-06-10T10:32:00;-19118.00;;;26.42;35.13
28606;BME280;46498;49.968;7.754;2023-06-10T10:37:02;-19132.00;;;26.86;33.81
28606;BME280;46498;49.968;7.754;2023-06-10T10:42:04;-19115.00;;;26.33;34.67
28606;BME280;46498;49.968;7.754;2023-06-10T10:47:10;-19114.00;;;26.29;34.22
28606;BME280;46498;49.968;7.754;2023-06-10T10:52:12;-19107.00;;;26.06;33.82
28606;BME280;46498;49.968;7.754;2023-06-10T10:57:20;-19104.00;;;25.98;33.63
28606;BME280;46498;49.968;7.754;2023-06-10T11:02:42;-19108.00;;;26.09;34.51
28606;BME280;46498;49.968;7.754;2023-06-10T11:07:54;-19123.00;;;26.56;33.00
28606;BME280;46498;49.968;7.754;2023-06-10T11:12:58;-19140.00;;;27.12;34.09
28606;BME280;46498;49.968;7.754;2023-06-10T11:18:27;-19122.00;;;26.54;34.50
28606;BME280;46498;49.968;7.754;2023-06-10T11:23:34;-19095.00;;;25.70;34.36
28606;BME280;46498;49.968;7.754;2023-06-10T11:28:35;-19099.00;;;25.81;34.20
28606;BME280;46498;49.968;7.754;2023-06-10T11:33:38;-19106.00;;;26.05;34.00
28606;BME280;46498;49.968;7.754;2023-06-10T11:38:40;-19105.00;;;26.00;33.88
28606;BME280;46498;49.968;7.754;2023-06-10T11:43:45;-19116.00;;;26.37;33.20
28606;BME280;46498;49.968;7.754;2023-06-10T11:48:54;-19107.00;;;26.08;33.00
28606;BME280;46498;49.968;7.754;2023-06-10T11:53:55;-19114.00;;;26.30;33.29
28606;BME280;46498;49.968;7.754;2023-06-10T11:58:58;-19115.00;;;26.31;32.41
28606;BME280;46498;49.968;7.754;2023-06-10T12:04:08;-19113.00;;;26.27;33.93
28606;BME280;46498;49.968;7.754;2023-06-10T12:09:27;-19129.00;;;26.77;33.84
28606;BME280;46498;49.968;7.754;2023-06-10T12:14:55;-19132.00;;;26.87;33.60
28606;BME280;46498;49.968;7.754;2023-06-10T12:20:00;-19121.00;;;26.53;33.08
28606;BME280;46498;49.968;7.754;2023-06-10T12:25:02;-19149.00;;;27.40;33.03
28606;BME280;46498;49.968;7.754;2023-06-10T12:30:06;-19121.00;;;26.53;34.84
28606;BME280;46498;49.968;7.754;2023-06-10T12:35:08;-19124.00;;;26.60;34.55
28606;BME280;46498;49.968;7.754;2023-06-10T12:40:11;-19138.00;;;27.04;33.07
28606;BME280;46498;49.968;7.754;2023-06-10T12:45:14;-19133.00;;;26.90;34.35
28606;BME280;46498;49.968;7.754;2023-06-10T12:50:15;-19152.00;;;27.48;34.88
28606;BME280;46498;49.968;7.754;2023-06-10T12:55:16;-19122.00;;;26.53;34.85
28606;BME280;46498;49.968;7.754;2023-06-10T13:00:18;-19133.00;;;26.89;33.85
28606;BME280;46498;49.968;7.754;2023-06-10T13:05:19;-19156.00;;;27.60;33.81
28606;BME280;46498;49.968;7.754;2023-06-10T13:10:21;-19146.00;;;27.31;33.85
28606;BME280;46498;49.968;7.754;2023-06-10T13:15:26;-19160.00;;;27.75;33.06
28606;BME280;46498;49.968;7.754;2023-06-10T13:20:27;-19171.00;;;28.10;32.41
28606;BME280;46498;49.968;7.754;2023-06-10T13:25:28;-19154.00;;;27.54;33.65
28606;BME280;46498;49.968;7.754;2023-06-10T13:30:29;-19166.00;;;27.94;33.09
28606;BME280;46498;49.968;7.754;2023-06-10T13:35:29;-19141.00;;;27.16;33.36
28606;BME280;46498;49.968;7.754;2023-06-10T13:40:30;-19148.00;;;27.35;32.75
28606;BME280;46498;49.968;7.754;2023-06-10T13:45:31;-19161.00;;;27.79;32.07
28606;BME280;46498;49.968;7.754;2023-06-10T13:50:32;-19154.00;;;27.54;32.26
28606;BME280;46498;49.968;7.754;2023-06-10T13:55:33;-19160.00;;;27.75;31.63
28606;BME280;46498;49.968;7.754;2023-06-10T14:00:34;-19148.00;;;27.36;32.31
28606;BME280;46498;49.968;7.754;2023-06-10T14:05:35;-19141.00;;;27.16;32.66
28606;BME280;46498;49.968;7.754;2023-06-10T14:10:36;-19151.00;;;27.45;32.66
28606;BME280;46498;49.968;7.754;2023-06-10T14:15:36;-19146.00;;;27.29;33.88
28606;BME280;46498;49.968;7.754;2023-06-10T14:20:37;-19147.00;;;27.34;32.57
28606;BME280;46498;49.968;7.754;2023-06-10T14:25:38;-19152.00;;;27.51;33.45
28606;BME280;46498;49.968;7.754;2023-06-10T14:30:39;-19143.00;;;27.22;32.18
28606;BME280;46498;49.968;7.754;2023-06-10T14:35:40;-19139.00;;;27.08;32.87
28606;BME280;46498;49.968;7.754;2023-06-10T14:40:41;-19162.00;;;27.81;32.34
28606;BME280;46498;49.968;7.754;2023-06-10T14:45:42;-19148.00;;;27.37;33.38
28606;BME280;46498;49.968;7.754;2023-06-10T14:50:43;-19152.00;;;27.49;33.24
28606;BME280;46498;49.968;7.754;2023-06-10T14:55:47;-19167.00;;;27.97;32.19
28606;BME280;46498;49.968;7.754;2023-06-10T15:00:48;-19157.00;;;27.64;32.41
28606;BME280;46498;49.968;7.754;2023-06-10T15:05:49;-19157.00;;;27.65;31.86
28606;BME280;46498;49.968;7.754;2023-06-10T15:10:50;-19140.00;;;27.10;32.40
28606;BME280;46498;49.968;7.754;2023-06-10T15:15:50;-19152.00;;;27.48;31.62
28606;BME280;46498;49.968;7.754;2023-06-10T15:20:51;-19148.00;;;27.36;32.17
28606;BME280;46498;49.968;7.754;2023-06-10T15:25:52;-19144.00;;;27.24;32.94
28606;BME280;46498;49.968;7.754;2023-06-10T15:30:53;-19154.00;;;27.55;32.22
28606;BME280;46498;49.968;7.754;2023-06-10T15:35:54;-19133.00;;;26.90;32.99
28606;BME280;46498;49.968;7.754;2023-06-10T15:40:55;-19141.00;;;27.15;33.35
28606;BME280;46498;49.968;7.754;2023-06-10T15:45:56;-19138.00;;;27.06;32.92
28606;BME280;46498;49.968;7.754;2023-06-10T15:50:57;-19132.00;;;26.85;32.52
28606;BME280;46498;49.968;7.754;2023-06-10T15:55:58;-19140.00;;;27.12;32.86
28606;BME280;46498;49.968;7.754;2023-06-10T16:00:58;-19139.00;;;27.08;32.69
28606;BME280;46498;49.968;7.754;2023-06-10T16:05:59;-19147.00;;;27.35;32.55
28606;BME280;46498;49.968;7.754;2023-06-10T16:11:00;-19164.00;;;27.87;32.76
28606;BME280;46498;49.968;7.754;2023-06-10T16:16:01;-19157.00;;;27.66;32.50
28606;BME280;46498;49.968;7.754;2023-06-10T16:21:02;-19161.00;;;27.79;31.91
28606;BME280;46498;49.968;7.754;2023-06-10T16:26:03;-19163.00;;;27.84;32.18
28606;BME280;46498;49.968;7.754;2023-06-10T16:31:04;-19152.00;;;27.48;33.44
28606;BME280;46498;49.968;7.754;2023-06-10T16:36:05;-19149.00;;;27.39;33.14
28606;BME280;46498;49.968;7.754;2023-06-10T16:41:06;-19157.00;;;27.66;32.93
28606;BME280;46498;49.968;7.754;2023-06-10T16:46:07;-19157.00;;;27.64;33.44
28606;BME280;46498;49.968;7.754;2023-06-10T16:51:08;-19118.00;;;26.41;35.69
28606;BME280;46498;49.968;7.754;2023-06-10T16:56:09;-19110.00;;;26.18;36.20
28606;BME280;46498;49.968;7.754;2023-06-10T17:01:10;-19099.00;;;25.83;37.00
28606;BME280;46498;49.968;7.754;2023-06-10T17:06:11;-19092.00;;;25.61;37.02
28606;BME280;46498;49.968;7.754;2023-06-10T17:11:12;-19090.00;;;25.53;37.33
28606;BME280;46498;49.968;7.754;2023-06-10T17:16:12;-19094.00;;;25.65;37.06
28606;BME280;46498;49.968;7.754;2023-06-10T17:21:13;-19096.00;;;25.72;37.13
28606;BME280;46498;49.968;7.754;2023-06-10T17:26:14;-19094.00;;;25.65;37.52
28606;BME280;46498;49.968;7.754;2023-06-10T17:31:15;-19091.00;;;25.58;37.75
28606;BME280;46498;49.968;7.754;2023-06-10T17:36:17;-19090.00;;;25.55;37.87
28606;BME280;46498;49.968;7.754;2023-06-10T17:41:18;-19089.00;;;25.49;37.87
28606;BME280;46498;49.968;7.754;2023-06-10T17:46:19;-19092.00;;;25.60;38.51
28606;BME280;46498;49.968;7.754;2023-06-10T17:51:20;-19095.00;;;25.69;38.05
28606;BME280;46498;49.968;7.754;2023-06-10T17:56:21;-19089.00;;;25.49;39.59
28606;BME280;46498;49.968;7.754;2023-06-10T18:01:22;-19088.00;;;25.48;38.61
28606;BME280;46498;49.968;7.754;2023-06-10T18:06:23;-19091.00;;;25.56;38.72
28606;BME280;46498;49.968;7.754;2023-06-10T18:11:24;-19094.00;;;25.67;38.29
28606;BME280;46498;49.968;7.754;2023-06-10T18:16:26;-19091.00;;;25.58;38.55
28606;BME280;46498;49.968;7.754;2023-06-10T18:21:29;-19085.00;;;25.37;38.96
28606;BME280;46498;49.968;7.754;2023-06-10T18:26:30;-19087.00;;;25.44;39.24
28606;BME280;46498;49.968;7.754;2023-06-10T18:31:31;-19084.00;;;25.35;39.06
28606;BME280;46498;49.968;7.754;2023-06-10T18:36:32;-19075.00;;;25.07;39.97
28606;BME280;46498;49.968;7.754;2023-06-10T18:41:33;-19075.00;;;25.06;40.06
28606;BME280;46498;49.968;7.754;2023-06-10T18:46:34;-19071.00;;;24.92;40.57
28606;BME280;46498;49.968;7.754;2023-06-10T18:51:35;-19068.00;;;24.84;40.02
28606;BME280;46498;49.968;7.754;2023-06-10T18:56:36;-19062.00;;;24.65;40.55
28606;BME280;46498;49.968;7.754;2023-06-10T19:01:37;-19056.00;;;24.47;41.07
28606;BME280;46498;49.968;7.754;2023-06-10T19:06:38;-19053.00;;;24.36;41.60
28606;BME280;46498;49.968;7.754;2023-06-10T19:11:39;-19047.00;;;24.19;42.11
28606;BME280;46498;49.968;7.754;2023-06-10T19:16:40;-19041.00;;;23.99;42.66
28606;BME280;46498;49.968;7.754;2023-06-10T19:21:41;-19037.00;;;23.85;43.09
28606;BME280;46498;49.968;7.754;2023-06-10T19:26:42;-19030.00;;;23.65;44.17
28606;BME280;46498;49.968;7.754;2023-06-10T19:31:43;-19026.00;;;23.53;44.75
28606;BME280;46498;49.968;7.754;2023-06-10T19:36:44;-19023.00;;;23.41;45.13
28606;BME280;46498;49.968;7.754;2023-06-10T19:41:45;-19017.00;;;23.22;46.26
28606;BME280;46498;49.968;7.754;2023-06-10T19:46:46;-19009.00;;;22.98;47.28
28606;BME280;46498;49.968;7.754;2023-06-10T19:51:48;-19002.00;;;22.74;48.23
28606;BME280;46498;49.968;7.754;2023-06-10T19:56:50;-19005.00;;;22.85;48.30
28606;BME280;46498;49.968;7.754;2023-06-10T20:01:51;-19004.00;;;22.82;48.75
28606;BME280;46498;49.968;7.754;2023-06-10T20:06:52;-19004.00;;;22.82;49.23
28606;BME280;46498;49.968;7.754;2023-06-10T20:11:53;-19004.00;;;22.82;49.54
28606;BME280;46498;49.968;7.754;2023-06-10T20:16:54;-19002.00;;;22.76;50.30
28606;BME280;46498;49.968;7.754;2023-06-10T20:21:55;-18997.00;;;22.60;51.14
28606;BME280;46498;49.968;7.754;2023-06-10T20:26:56;-18992.00;;;22.43;52.34
28606;BME280;46498;49.968;7.754;2023-06-10T20:31:58;-18988.00;;;22.30;53.50
28606;BME280;46498;49.968;7.754;2023-06-10T20:36:59;-18982.00;;;22.14;54.71
28606;BME280;46498;49.968;7.754;2023-06-10T20:42:00;-18983.00;;;22.14;55.03
28606;BME280;46498;49.968;7.754;2023-06-10T20:47:01;-18975.00;;;21.91;55.91
28606;BME280;46498;49.968;7.754;2023-06-10T20:52:03;-18981.00;;;22.10;54.89
28606;BME280;46498;49.968;7.754;2023-06-10T20:57:04;-18975.00;;;21.91;55.26
28606;BME280;46498;49.968;7.754;2023-06-10T21:02:06;-18979.00;;;22.03;54.93
28606;BME280;46498;49.968;7.754;2023-06-10T21:07:08;-18980.00;;;22.07;54.46
28606;BME280;46498;49.968;7.754;2023-06-10T21:12:09;-18979.00;;;22.05;54.33
28606;BME280;46498;49.968;7.754;2023-06-10T21:17:10;-18979.00;;;22.04;54.45
28606;BME280;46498;49.968;7.754;2023-06-10T21:22:11;-18982.00;;;22.12;53.96
28606;BME280;46498;49.968;7.754;2023-06-10T21:27:12;-18979.00;;;22.05;53.74
28606;BME280;46498;49.968;7.754;2023-06-10T21:32:15;-18980.00;;;22.07;53.57
28606;BME280;46498;49.968;7.754;2023-06-10T21:37:16;-18978.00;;;22.00;53.90
28606;BME280;46498;49.968;7.754;2023-06-10T21:42:17;-18976.00;;;21.94;53.95
28606;BME280;46498;49.968;7.754;2023-06-10T21:47:17;-18978.00;;;22.00;53.44
28606;BME280;46498;49.968;7.754;2023-06-10T21:52:18;-18973.00;;;21.84;53.88
28606;BME280;46498;49.968;7.754;2023-06-10T21:57:21;-18973.00;;;21.85;54.09
28606;BME280;46498;49.968;7.754;2023-06-10T22:02:24;-18974.00;;;21.87;54.25
28606;BME280;46498;49.968;7.754;2023-06-10T22:07:25;-18974.00;;;21.88;54.64
28606;BME280;46498;49.968;7.754;2023-06-10T22:12:26;-18970.00;;;21.75;55.20
28606;BME280;46498;49.968;7.754;2023-06-10T22:17:27;-18970.00;;;21.76;55.92
28606;BME280;46498;49.968;7.754;2023-06-10T22:22:31;-18966.00;;;21.62;56.75
28606;BME280;46498;49.968;7.754;2023-06-10T22:27:32;-18966.00;;;21.63;57.18
28606;BME280;46498;49.968;7.754;2023-06-10T22:32:33;-18966.00;;;21.63;57.46
28606;BME280;46498;49.968;7.754;2023-06-10T22:37:34;-18963.00;;;21.52;58.03
28606;BME280;46498;49.968;7.754;2023-06-10T22:42:35;-18967.00;;;21.64;57.79
28606;BME280;46498;49.968;7.754;2023-06-10T22:47:36;-18958.00;;;21.38;59.80
28606;BME280;46498;49.968;7.754;2023-06-10T22:52:37;-18953.00;;;21.23;61.19
28606;BME280;46498;49.968;7.754;2023-06-10T22:57:38;-18950.00;;;21.11;62.02
28606;BME280;46498;49.968;7.754;2023-06-10T23:02:39;-18953.00;;;21.21;61.51
28606;BME280;46498;49.968;7.754;2023-06-10T23:07:40;-18955.00;;;21.26;60.78
28606;BME280;46498;49.968;7.754;2023-06-10T23:12:41;-18951.00;;;21.14;61.15
28606;BME280;46498;49.968;7.754;2023-06-10T23:17:42;-18952.00;;;21.19;60.75
28606;BME280;46498;49.968;7.754;2023-06-10T23:22:45;-18948.00;;;21.07;61.31
28606;BME280;46498;49.968;7.754;2023-06-10T23:27:50;-18944.00;;;20.94;62.03
28606;BME280;46498;49.968;7.754;2023-06-10T23:32:51;-18941.00;;;20.85;62.70
28606;BME280;46498;49.968;7.754;2023-06-10T23:37:52;-18938.00;;;20.75;63.06
28606;BME280;46498;49.968;7.754;2023-06-10T23:42:53;-18942.00;;;20.87;62.40
28606;BME280;46498;49.968;7.754;2023-06-10T23:47:54;-18938.00;;;20.74;63.22
28606;BME280;46498;49.968;7.754;2023-06-10T23:52:55;-18936.00;;;20.69;63.79
28606;BME280;46498;49.968;7.754;2023-06-10T23:57:56;-18936.00;;;20.66;64.40
